createdAt,value
2022-09-10T00:00:32.875Z,0.00
2022-09-10T00:01:32.984Z,0.00
2022-09-10T00:02:32.889Z,0.00
2022-09-10T00:03:32.848Z,0.00
2022-09-10T00:04:32.859Z,0.00
2022-09-10T00:05:32.828Z,0.00
2022-09-10T00:06:32.821Z,0.00
2022-09-10T00:07:32.812Z,0.00
2022-09-10T00:08:32.804Z,0.00
2022-09-10T00:09:32.792Z,0.00
2022-09-10T00:10:32.787Z,0.00
2022-09-10T00:11:32.785Z,0.00
2022-09-10T00:12:32.769Z,0.00
2022-09-10T00:13:32.762Z,0.00
2022-09-10T00:14:32.753Z,0.00
2022-09-10T00:15:32.751Z,0.00
2022-09-10T00:16:32.786Z,0.00
2022-09-10T00:17:32.722Z,0.00
2022-09-10T00:18:32.717Z,0.00
2022-09-10T00:19:32.703Z,0.00
2022-09-10T00:20:32.715Z,0.00
2022-09-10T00:21:32.687Z,0.00
2022-09-10T00:22:32.680Z,0.00
2022-09-10T00:23:32.667Z,0.00
2022-09-10T00:24:32.661Z,0.00
2022-09-10T00:25:32.651Z,0.00
2022-09-10T00:26:32.645Z,0.00
2022-09-10T00:27:32.634Z,0.00
2022-09-10T00:28:32.626Z,0.00
2022-09-10T00:29:32.615Z,0.00
2022-09-10T00:30:32.610Z,0.00
2022-09-10T00:31:32.697Z,0.00
2022-09-10T00:32:32.590Z,0.00
2022-09-10T00:33:32.581Z,0.00
2022-09-10T00:34:32.574Z,0.00
2022-09-10T00:35:32.563Z,0.00
2022-09-10T00:36:32.575Z,0.00
2022-09-10T00:37:32.545Z,0.00
2022-09-10T00:38:32.537Z,0.00
2022-09-10T00:39:32.602Z,0.00
2022-09-10T00:40:32.520Z,0.00
2022-09-10T00:41:32.509Z,0.00
2022-09-10T00:42:32.508Z,0.00
2022-09-10T00:43:32.490Z,0.00
2022-09-10T00:44:35.587Z,0.00
2022-09-10T00:45:32.510Z,0.00
2022-09-10T00:46:32.467Z,0.00
2022-09-10T00:47:32.454Z,0.00
2022-09-10T00:48:32.448Z,0.00
2022-09-10T00:49:32.437Z,0.00
2022-09-10T00:50:32.431Z,0.00
2022-09-10T00:51:32.418Z,0.00
2022-09-10T00:52:33.678Z,0.00
2022-09-10T00:53:32.405Z,0.00
2022-09-10T00:54:32.395Z,0.00
2022-09-10T00:55:32.385Z,0.00
2022-09-10T00:56:32.382Z,0.00
2022-09-10T00:57:32.382Z,0.00
2022-09-10T00:58:32.362Z,0.00
2022-09-10T00:59:32.350Z,0.00
2022-09-10T01:00:32.385Z,0.00
2022-09-10T01:01:32.337Z,0.00
2022-09-10T01:02:32.326Z,0.00
2022-09-10T01:03:32.312Z,0.00
2022-09-10T01:04:32.322Z,0.00
2022-09-10T01:05:32.296Z,0.00
2022-09-10T01:06:32.289Z,0.00
2022-09-10T01:07:32.376Z,0.00
2022-09-10T01:08:32.290Z,0.00
2022-09-10T01:09:32.259Z,0.00
2022-09-10T01:10:32.254Z,0.00
2022-09-10T01:11:34.665Z,0.00
2022-09-10T01:12:35.860Z,0.00
2022-09-10T01:13:32.224Z,0.00
2022-09-10T01:14:32.231Z,0.00
2022-09-10T01:15:32.204Z,0.00
2022-09-10T01:16:32.254Z,0.00
2022-09-10T01:17:32.186Z,0.00
2022-09-10T01:18:32.180Z,0.00
2022-09-10T01:19:32.169Z,0.00
2022-09-10T01:20:32.160Z,0.00
2022-09-10T01:21:32.151Z,0.00
2022-09-10T01:22:32.144Z,0.00
2022-09-10T01:23:32.133Z,0.00
2022-09-10T01:24:32.145Z,0.00
2022-09-10T01:25:32.115Z,0.00
2022-09-10T01:26:32.107Z,0.00
2022-09-10T01:27:32.101Z,0.00
2022-09-10T01:28:32.089Z,0.00
2022-09-10T01:29:32.078Z,0.00
2022-09-10T01:30:32.080Z,0.00
2022-09-10T01:31:32.100Z,0.00
2022-09-10T01:32:32.053Z,0.00
2022-09-10T01:33:32.042Z,0.00
2022-09-10T01:34:32.036Z,0.00
2022-09-10T01:35:32.023Z,0.00
2022-09-10T01:36:32.016Z,0.00
2022-09-10T01:37:32.005Z,0.00
2022-09-10T01:38:32.084Z,0.00
2022-09-10T01:39:32.073Z,0.00
2022-09-10T01:40:32.026Z,0.00
2022-09-10T01:41:31.970Z,0.00
2022-09-10T01:42:31.967Z,0.00
2022-09-10T01:43:31.951Z,0.00
2022-09-10T01:44:31.946Z,0.00
2022-09-10T01:45:31.979Z,0.00
2022-09-10T01:46:31.927Z,0.00
2022-09-10T01:47:31.916Z,0.00
2022-09-10T01:48:31.944Z,0.00
2022-09-10T01:49:31.897Z,0.00
2022-09-10T01:50:31.904Z,0.00
2022-09-10T01:51:31.878Z,0.00
2022-09-10T01:52:31.871Z,0.00
2022-09-10T01:53:31.860Z,0.00
2022-09-10T01:54:31.854Z,0.00
2022-09-10T01:55:31.843Z,0.00
2022-09-10T01:56:31.858Z,0.00
2022-09-10T01:57:31.824Z,0.00
2022-09-10T01:58:31.824Z,0.00
2022-09-10T01:59:31.807Z,0.00
2022-09-10T02:00:31.800Z,0.00
2022-09-10T02:01:31.788Z,0.00
2022-09-10T02:02:31.781Z,0.00
2022-09-10T02:03:31.771Z,0.00
2022-09-10T02:04:31.764Z,0.00
2022-09-10T02:05:31.752Z,0.00
2022-09-10T02:06:31.745Z,0.00
2022-09-10T02:07:31.737Z,0.00
2022-09-10T02:08:31.802Z,0.00
2022-09-10T02:09:31.716Z,0.00
2022-09-10T02:10:31.710Z,0.00
2022-09-10T02:11:31.700Z,0.00
2022-09-10T02:12:31.708Z,0.00
2022-09-10T02:13:31.680Z,0.00
2022-09-10T02:14:31.673Z,0.00
2022-09-10T02:15:31.662Z,0.00
2022-09-10T02:16:31.698Z,0.00
2022-09-10T02:17:31.645Z,0.00
2022-09-10T02:18:31.659Z,0.00
2022-09-10T02:19:31.627Z,0.00
2022-09-10T02:20:31.619Z,0.00
2022-09-10T02:21:31.608Z,0.00
2022-09-10T02:22:31.602Z,0.00
2022-09-10T02:23:31.604Z,0.00
2022-09-10T02:24:31.596Z,0.00
2022-09-10T02:25:31.573Z,0.00
2022-09-10T02:26:31.565Z,0.00
2022-09-10T02:27:31.554Z,0.00
2022-09-10T02:28:31.613Z,0.00
2022-09-10T02:29:31.537Z,0.00
2022-09-10T02:30:31.529Z,0.00
2022-09-10T02:31:31.587Z,0.00
2022-09-10T02:32:31.510Z,0.00
2022-09-10T02:33:31.499Z,0.00
2022-09-10T02:34:31.494Z,0.00
2022-09-10T02:35:31.479Z,0.00
2022-09-10T02:36:31.473Z,0.00
2022-09-10T02:37:31.464Z,0.00
2022-09-10T02:38:31.489Z,0.00
2022-09-10T02:39:31.444Z,0.00
2022-09-10T02:40:31.437Z,0.00
2022-09-10T02:41:31.427Z,0.00
2022-09-10T02:42:31.421Z,0.00
2022-09-10T02:43:31.407Z,0.00
2022-09-10T02:44:31.423Z,0.00
2022-09-10T02:45:31.432Z,0.00
2022-09-10T02:46:31.383Z,0.00
2022-09-10T02:47:31.371Z,0.00
2022-09-10T02:48:31.399Z,0.00
2022-09-10T02:49:31.354Z,0.00
2022-09-10T02:50:31.349Z,0.00
2022-09-10T02:51:31.334Z,0.00
2022-09-10T02:52:31.329Z,0.00
2022-09-10T02:53:31.318Z,0.00
2022-09-10T02:54:31.312Z,0.00
2022-09-10T02:56:31.291Z,0.00
2022-09-10T02:57:31.285Z,0.00
2022-09-10T02:58:31.390Z,0.00
2022-09-10T02:59:31.264Z,0.00
2022-09-10T03:00:31.275Z,0.00
2022-09-10T03:01:31.248Z,0.00
2022-09-10T03:02:31.237Z,0.00
2022-09-10T03:03:31.230Z,0.00
2022-09-10T03:04:31.219Z,0.00
2022-09-10T03:05:31.292Z,0.00
2022-09-10T03:06:31.201Z,0.00
2022-09-10T03:07:31.194Z,0.00
2022-09-10T03:08:31.233Z,0.00
2022-09-10T03:09:31.225Z,0.00
2022-09-10T03:10:31.166Z,0.00
2022-09-10T03:11:31.157Z,0.00
2022-09-10T03:12:31.146Z,0.00
2022-09-10T03:13:31.140Z,0.00
2022-09-10T03:14:31.128Z,0.00
2022-09-10T03:15:31.121Z,0.00
2022-09-10T03:16:31.210Z,0.00
2022-09-10T03:17:31.105Z,0.00
2022-09-10T03:18:31.120Z,0.00
2022-09-10T03:19:31.085Z,0.00
2022-09-10T03:20:31.075Z,0.00
2022-09-10T03:21:31.067Z,0.00
2022-09-10T03:22:31.057Z,0.00
2022-09-10T03:23:31.049Z,0.00
2022-09-10T03:24:31.038Z,0.00
2022-09-10T03:25:31.031Z,0.00
2022-09-10T03:26:31.021Z,0.00
2022-09-10T03:27:31.013Z,0.00
2022-09-10T03:28:31.071Z,0.00
2022-09-10T03:29:30.996Z,0.00
2022-09-10T03:30:30.984Z,0.00
2022-09-10T03:31:31.096Z,0.00
2022-09-10T03:32:30.987Z,0.00
2022-09-10T03:33:30.958Z,0.00
2022-09-10T03:34:30.948Z,0.00
2022-09-10T03:35:30.942Z,0.00
2022-09-10T03:36:30.929Z,0.00
2022-09-10T03:37:30.923Z,0.00
2022-09-10T03:38:30.944Z,0.00
2022-09-10T03:39:30.905Z,0.00
2022-09-10T03:40:30.894Z,0.00
2022-09-10T03:41:30.886Z,0.00
2022-09-10T03:42:30.875Z,0.00
2022-09-10T03:43:30.872Z,0.00
2022-09-10T03:44:30.859Z,0.00
2022-09-10T03:45:30.898Z,0.00
2022-09-10T03:46:30.842Z,0.00
2022-09-10T03:47:30.829Z,0.00
2022-09-10T03:48:30.984Z,0.00
2022-09-10T03:49:30.812Z,0.00
2022-09-10T03:50:30.805Z,0.00
2022-09-10T03:51:30.792Z,0.00
2022-09-10T03:52:30.787Z,0.00
2022-09-10T03:53:30.777Z,0.00
2022-09-10T03:54:30.770Z,0.00
2022-09-10T03:55:30.757Z,0.00
2022-09-10T03:56:30.750Z,0.00
2022-09-10T03:57:30.740Z,0.00
2022-09-10T03:58:30.797Z,0.00
2022-09-10T03:59:30.721Z,0.00
2022-09-10T04:00:30.714Z,0.00
2022-09-10T04:01:30.703Z,0.00
2022-09-10T04:02:30.756Z,0.00
2022-09-10T04:03:30.688Z,0.00
2022-09-10T04:04:30.697Z,0.00
2022-09-10T04:05:30.666Z,0.00
2022-09-10T04:06:30.660Z,0.00
2022-09-10T04:07:30.648Z,0.00
2022-09-10T04:08:30.745Z,0.00
2022-09-10T04:09:30.630Z,0.00
2022-09-10T04:10:30.624Z,0.00
2022-09-10T04:11:30.612Z,0.00
2022-09-10T04:12:30.606Z,0.00
2022-09-10T04:13:30.605Z,0.00
2022-09-10T04:14:30.587Z,0.00
2022-09-10T04:15:30.576Z,0.00
2022-09-10T04:16:30.610Z,0.00
2022-09-10T04:17:30.558Z,0.00
2022-09-10T04:18:30.660Z,0.00
2022-09-10T04:19:30.539Z,0.00
2022-09-10T04:20:30.549Z,0.00
2022-09-10T04:21:30.521Z,0.00
2022-09-10T04:22:30.514Z,0.00
2022-09-10T04:23:30.504Z,0.00
2022-09-10T04:24:30.496Z,0.00
2022-09-10T04:25:30.485Z,0.00
2022-09-10T04:26:30.480Z,0.00
2022-09-10T04:27:30.466Z,0.00
2022-09-10T04:28:30.489Z,0.00
2022-09-10T04:29:30.448Z,0.00
2022-09-10T04:30:30.441Z,0.00
2022-09-10T04:31:30.464Z,0.00
2022-09-10T04:32:30.424Z,0.00
2022-09-10T04:33:30.415Z,0.00
2022-09-10T04:34:30.408Z,0.00
2022-09-10T04:35:30.394Z,0.00
2022-09-10T04:36:30.404Z,0.00
2022-09-10T04:37:30.377Z,0.00
2022-09-10T04:38:30.376Z,0.00
2022-09-10T04:39:30.358Z,0.00
2022-09-10T04:40:30.353Z,0.00
2022-09-10T04:41:30.340Z,0.00
2022-09-10T04:42:30.334Z,0.00
2022-09-10T04:43:30.321Z,0.00
2022-09-10T04:44:30.320Z,0.00
2022-09-10T04:45:30.347Z,0.00
2022-09-10T04:46:30.297Z,0.00
2022-09-10T04:47:30.284Z,0.00
2022-09-10T04:48:30.278Z,0.00
2022-09-10T04:49:30.268Z,0.00
2022-09-10T04:50:30.262Z,0.00
2022-09-10T04:51:30.249Z,0.00
2022-09-10T04:52:30.272Z,0.00
2022-09-10T04:53:30.234Z,0.00
2022-09-10T04:54:30.225Z,0.00
2022-09-10T04:55:30.214Z,0.00
2022-09-10T04:56:30.205Z,0.00
2022-09-10T04:57:30.195Z,0.00
2022-09-10T04:58:30.189Z,0.00
2022-09-10T04:59:30.176Z,0.00
2022-09-10T05:00:30.184Z,0.00
2022-09-10T05:01:30.160Z,0.00
2022-09-10T05:02:30.208Z,0.00
2022-09-10T05:03:30.141Z,0.00
2022-09-10T05:04:30.135Z,0.00
2022-09-10T05:05:30.122Z,0.00
2022-09-10T05:06:30.130Z,0.00
2022-09-10T05:07:30.102Z,0.00
2022-09-10T05:08:30.147Z,0.00
2022-09-10T05:09:30.087Z,0.00
2022-09-10T05:10:30.079Z,0.00
2022-09-10T05:11:30.067Z,0.00
2022-09-10T05:12:30.060Z,0.00
2022-09-10T05:13:30.049Z,0.00
2022-09-10T05:14:30.042Z,0.00
2022-09-10T05:15:30.030Z,0.00
2022-09-10T05:16:30.091Z,0.00
2022-09-10T05:17:30.015Z,0.00
2022-09-10T05:18:30.007Z,0.00
2022-09-10T05:19:29.994Z,0.00
2022-09-10T05:20:29.987Z,0.00
2022-09-10T05:21:29.977Z,0.00
2022-09-10T05:22:36.039Z,0.00
2022-09-10T05:23:29.957Z,0.00
2022-09-10T05:24:30.072Z,0.00
2022-09-10T05:25:29.940Z,5.63
2022-09-10T05:26:29.933Z,5.63
2022-09-10T05:27:29.923Z,5.63
2022-09-10T05:28:29.916Z,5.63
2022-09-10T05:29:29.904Z,5.63
2022-09-10T05:30:29.899Z,5.63
2022-09-10T05:31:29.912Z,5.63
2022-09-10T05:32:29.881Z,5.63
2022-09-10T05:33:29.867Z,5.63
2022-09-10T05:34:29.865Z,5.63
2022-09-10T05:35:29.850Z,5.63
2022-09-10T05:36:29.844Z,5.63
2022-09-10T05:37:29.833Z,5.63
2022-09-10T05:38:29.825Z,5.63
2022-09-10T05:39:29.814Z,5.63
2022-09-10T05:40:29.844Z,5.63
2022-09-10T05:41:29.797Z,5.63
2022-09-10T05:42:29.793Z,5.63
2022-09-10T05:43:29.777Z,5.63
2022-09-10T05:44:29.771Z,5.63
2022-09-10T05:45:29.819Z,11.25
2022-09-10T05:46:29.756Z,11.25
2022-09-10T05:47:29.943Z,11.25
2022-09-10T05:48:29.736Z,11.25
2022-09-10T05:49:29.724Z,16.88
2022-09-10T05:50:29.717Z,16.88
2022-09-10T05:51:29.720Z,16.88
2022-09-10T05:52:29.699Z,16.88
2022-09-10T05:53:29.689Z,16.88
2022-09-10T05:54:29.694Z,16.88
2022-09-10T05:55:29.671Z,16.88
2022-09-10T05:56:29.682Z,16.88
2022-09-10T05:57:29.653Z,16.88
2022-09-10T05:58:29.646Z,16.88
2022-09-10T05:59:29.634Z,16.88
2022-09-10T06:00:29.630Z,22.50
2022-09-10T06:01:29.617Z,22.50
2022-09-10T06:02:29.706Z,22.50
2022-09-10T06:03:29.599Z,28.13
2022-09-10T06:04:29.593Z,28.13
2022-09-10T06:05:29.586Z,28.13
2022-09-10T06:06:29.574Z,28.13
2022-09-10T06:07:29.563Z,33.75
2022-09-10T06:08:29.560Z,33.75
2022-09-10T06:09:29.544Z,39.38
2022-09-10T06:10:29.540Z,39.38
2022-09-10T06:11:29.527Z,39.38
2022-09-10T06:12:29.539Z,39.38
2022-09-10T06:13:29.514Z,33.75
2022-09-10T06:14:29.507Z,39.38
2022-09-10T06:15:29.491Z,39.38
2022-09-10T06:16:29.522Z,39.38
2022-09-10T06:17:29.476Z,39.38
2022-09-10T06:18:29.468Z,39.38
2022-09-10T06:19:29.456Z,45.00
2022-09-10T06:20:29.453Z,45.00
2022-09-10T06:21:29.449Z,45.00
2022-09-10T06:22:29.434Z,45.00
2022-09-10T06:23:29.424Z,50.63
2022-09-10T06:24:29.416Z,50.63
2022-09-10T06:25:29.406Z,50.63
2022-09-10T06:26:29.500Z,50.63
2022-09-10T06:27:29.391Z,50.63
2022-09-10T06:28:29.403Z,45.00
2022-09-10T06:29:29.372Z,45.00
2022-09-10T06:30:29.428Z,45.00
2022-09-10T06:31:29.357Z,45.00
2022-09-10T06:32:29.351Z,45.00
2022-09-10T06:33:29.340Z,45.00
2022-09-10T06:34:29.331Z,45.00
2022-09-10T06:35:29.320Z,45.00
2022-09-10T06:36:29.316Z,45.00
2022-09-10T06:37:29.304Z,45.00
2022-09-10T06:38:29.298Z,45.00
2022-09-10T06:39:29.285Z,45.00
2022-09-10T06:40:29.281Z,39.38
2022-09-10T06:41:29.271Z,39.38
2022-09-10T06:42:29.264Z,39.38
2022-09-10T06:43:29.254Z,39.38
2022-09-10T06:44:29.264Z,39.38
2022-09-10T06:45:29.312Z,39.38
2022-09-10T06:48:48.093Z,39.38
2022-09-10T06:49:29.206Z,33.75
2022-09-10T06:50:29.198Z,33.75
2022-09-10T06:51:29.186Z,33.75
2022-09-10T06:52:29.180Z,33.75
2022-09-10T06:53:29.273Z,33.75
2022-09-10T06:54:29.164Z,33.75
2022-09-10T06:55:29.155Z,33.75
2022-09-10T06:56:29.148Z,28.13
2022-09-10T06:57:29.139Z,28.13
2022-09-10T06:58:29.133Z,33.75
2022-09-10T06:59:29.121Z,33.75
2022-09-10T07:00:29.150Z,33.75
2022-09-10T07:01:29.133Z,33.75
2022-09-10T07:02:29.159Z,33.75
2022-09-10T07:03:29.088Z,33.75
2022-09-10T07:04:29.099Z,33.75
2022-09-10T07:05:29.073Z,39.38
2022-09-10T07:06:29.067Z,39.38
2022-09-10T07:07:29.056Z,39.38
2022-09-10T07:08:29.049Z,39.38
2022-09-10T07:09:29.040Z,39.38
2022-09-10T07:10:29.035Z,39.38
2022-09-10T07:11:29.024Z,39.38
2022-09-10T07:12:29.017Z,39.38
2022-09-10T07:13:29.009Z,33.75
2022-09-10T07:14:29.003Z,33.75
2022-09-10T07:15:28.991Z,33.75
2022-09-10T07:16:29.004Z,33.75
2022-09-10T07:17:32.014Z,39.38
2022-09-10T07:18:28.970Z,39.38
2022-09-10T07:19:28.959Z,39.38
2022-09-10T07:20:28.952Z,45.00
2022-09-10T07:21:28.942Z,45.00
2022-09-10T07:22:28.937Z,45.00
2022-09-10T07:23:28.925Z,45.00
2022-09-10T07:24:28.920Z,56.25
2022-09-10T07:25:28.910Z,61.88
2022-09-10T07:26:28.922Z,67.50
2022-09-10T07:27:28.894Z,73.13
2022-09-10T07:28:28.889Z,78.75
2022-09-10T07:29:28.879Z,84.38
2022-09-10T07:30:28.874Z,78.75
2022-09-10T07:31:28.871Z,78.75
2022-09-10T07:32:28.877Z,78.75
2022-09-10T07:33:28.858Z,78.75
2022-09-10T07:34:28.842Z,84.38
2022-09-10T07:35:28.830Z,78.75
2022-09-10T07:36:28.829Z,78.75
2022-09-10T07:37:28.814Z,78.75
2022-09-10T07:38:28.809Z,78.75
2022-09-10T07:39:28.799Z,78.75
2022-09-10T07:40:28.797Z,78.75
2022-09-10T07:41:28.783Z,78.75
2022-09-10T07:42:28.781Z,78.75
2022-09-10T07:43:28.778Z,73.13
2022-09-10T07:44:28.764Z,73.13
2022-09-10T07:45:28.808Z,73.13
2022-09-10T07:46:28.749Z,84.38
2022-09-10T07:47:28.737Z,67.50
2022-09-10T07:48:28.755Z,67.50
2022-09-10T07:49:28.724Z,61.88
2022-09-10T07:50:28.719Z,61.88
2022-09-10T07:51:28.707Z,61.88
2022-09-10T07:52:28.704Z,61.88
2022-09-10T07:53:28.694Z,61.88
2022-09-10T07:54:28.689Z,61.88
2022-09-10T07:55:28.679Z,61.88
2022-09-10T07:56:28.674Z,61.88
2022-09-10T07:57:28.664Z,61.88
2022-09-10T07:58:28.660Z,61.88
2022-09-10T07:59:28.651Z,56.25
2022-09-10T08:01:28.676Z,50.63
2022-09-10T08:02:28.680Z,50.63
2022-09-10T08:03:28.621Z,50.63
2022-09-10T08:04:28.635Z,56.25
2022-09-10T08:05:28.611Z,50.63
2022-09-10T08:06:28.602Z,56.25
2022-09-10T08:07:28.592Z,56.25
2022-09-10T08:08:28.588Z,56.25
2022-09-10T08:09:28.579Z,61.88
2022-09-10T08:10:28.573Z,61.88
2022-09-10T08:11:28.563Z,61.88
2022-09-10T08:12:28.558Z,67.50
2022-09-10T08:13:28.550Z,67.50
2022-09-10T08:14:28.559Z,67.50
2022-09-10T08:15:28.533Z,73.13
2022-09-10T08:16:28.530Z,73.13
2022-09-10T08:17:28.520Z,73.13
2022-09-10T08:18:28.517Z,73.13
2022-09-10T08:19:28.507Z,73.13
2022-09-10T08:20:28.521Z,73.13
2022-09-10T08:21:28.492Z,73.13
2022-09-10T08:22:28.487Z,73.13
2022-09-10T08:23:28.478Z,73.13
2022-09-10T08:24:28.473Z,78.75
2022-09-10T08:25:28.563Z,78.75
2022-09-10T08:26:28.459Z,84.38
2022-09-10T08:27:28.448Z,84.38
2022-09-10T08:28:28.444Z,90.00
2022-09-10T08:29:28.434Z,90.00
2022-09-10T08:30:28.431Z,95.63
2022-09-10T08:31:28.420Z,95.63
2022-09-10T08:32:28.416Z,101.25
2022-09-10T08:33:28.407Z,101.25
2022-09-10T08:34:28.403Z,101.25
2022-09-10T08:35:28.394Z,101.25
2022-09-10T08:36:28.408Z,101.25
2022-09-10T08:37:28.380Z,101.25
2022-09-10T08:38:28.376Z,106.88
2022-09-10T08:39:28.366Z,106.88
2022-09-10T08:40:28.362Z,106.88
2022-09-10T08:41:28.381Z,112.50
2022-09-10T08:42:28.349Z,112.50
2022-09-10T08:43:28.340Z,112.50
2022-09-10T08:44:28.335Z,112.50
2022-09-10T08:45:28.407Z,106.88
2022-09-10T08:46:28.323Z,106.88
2022-09-10T08:47:28.314Z,106.88
2022-09-10T08:48:28.308Z,106.88
2022-09-10T08:49:28.301Z,101.25
2022-09-10T08:50:28.303Z,101.25
2022-09-10T08:51:28.297Z,106.88
2022-09-10T08:52:28.301Z,101.25
2022-09-10T08:53:28.276Z,101.25
2022-09-10T08:54:28.271Z,101.25
2022-09-10T08:55:28.267Z,101.25
2022-09-10T08:56:28.259Z,106.88
2022-09-10T08:57:28.250Z,106.88
2022-09-10T08:58:28.248Z,112.50
2022-09-10T08:59:28.337Z,101.25
2022-09-10T09:00:28.235Z,95.63
2022-09-10T09:01:28.261Z,90.00
2022-09-10T09:02:47.900Z,84.38
2022-09-10T09:03:28.213Z,78.75
2022-09-10T09:04:28.209Z,73.13
2022-09-10T09:05:28.215Z,61.88
2022-09-10T09:06:28.198Z,56.25
2022-09-10T09:07:28.188Z,50.63
2022-09-10T09:08:28.203Z,50.63
2022-09-10T09:09:28.178Z,50.63
2022-09-10T09:10:28.173Z,50.63
2022-09-10T09:11:28.165Z,45.00
2022-09-10T09:12:28.161Z,45.00
2022-09-10T09:13:28.152Z,39.38
2022-09-10T09:14:28.151Z,39.38
2022-09-10T09:15:28.193Z,39.38
2022-09-10T09:16:28.143Z,45.00
2022-09-10T09:17:28.127Z,45.00
2022-09-10T09:18:28.122Z,50.63
2022-09-10T09:19:28.115Z,56.25
2022-09-10T09:20:28.110Z,56.25
2022-09-10T09:21:28.102Z,56.25
2022-09-10T09:22:28.112Z,61.88
2022-09-10T09:23:28.091Z,67.50
2022-09-10T09:24:28.104Z,67.50
2022-09-10T09:25:28.076Z,67.50
2022-09-10T09:26:28.072Z,67.50
2022-09-10T09:27:28.065Z,78.75
2022-09-10T09:28:28.061Z,90.00
2022-09-10T09:29:28.102Z,101.25
2022-09-10T09:30:28.057Z,106.88
2022-09-10T09:31:28.099Z,112.50
2022-09-10T09:32:28.036Z,112.50
2022-09-10T09:33:28.026Z,112.50
2022-09-10T09:34:28.023Z,112.50
2022-09-10T09:35:28.014Z,112.50
2022-09-10T09:36:28.009Z,112.50
2022-09-10T09:37:28.001Z,118.13
2022-09-10T09:38:27.996Z,118.13
2022-09-10T09:39:27.986Z,118.13
2022-09-10T09:40:27.998Z,118.13
2022-09-10T09:41:27.974Z,118.13
2022-09-10T09:42:27.971Z,118.13
2022-09-10T09:43:27.960Z,123.75
2022-09-10T09:44:27.957Z,112.50
2022-09-10T09:45:28.022Z,112.50
2022-09-10T09:46:27.944Z,112.50
2022-09-10T09:47:27.936Z,106.88
2022-09-10T09:48:27.931Z,101.25
2022-09-10T09:49:27.923Z,95.63
2022-09-10T09:50:27.919Z,90.00
2022-09-10T09:51:27.911Z,90.00
2022-09-10T09:52:27.907Z,84.38
2022-09-10T09:53:27.897Z,84.38
2022-09-10T09:55:03.006Z,90.00
2022-09-10T09:55:27.886Z,84.38
2022-09-10T09:56:27.898Z,78.75
2022-09-10T09:57:27.874Z,78.75
2022-09-10T09:58:27.870Z,78.75
2022-09-10T09:59:27.862Z,78.75
2022-09-10T10:00:27.856Z,78.75
2022-09-10T10:01:27.911Z,78.75
2022-09-10T10:02:28.021Z,78.75
2022-09-10T10:03:27.834Z,73.13
2022-09-10T10:04:27.830Z,73.13
2022-09-10T10:05:27.821Z,78.75
2022-09-10T10:06:27.816Z,78.75
2022-09-10T10:07:27.807Z,78.75
2022-09-10T10:08:27.802Z,78.75
2022-09-10T10:09:27.794Z,78.75
2022-09-10T10:10:27.789Z,78.75
2022-09-10T10:11:27.781Z,84.38
2022-09-10T10:12:27.793Z,84.38
2022-09-10T10:13:27.769Z,90.00
2022-09-10T10:14:27.762Z,90.00
2022-09-10T10:15:27.752Z,95.63
2022-09-10T10:16:27.748Z,95.63
2022-09-10T10:17:27.739Z,101.25
2022-09-10T10:18:27.734Z,101.25
2022-09-10T10:19:27.724Z,101.25
2022-09-10T10:20:27.721Z,101.25
2022-09-10T10:21:27.713Z,101.25
2022-09-10T10:22:27.710Z,101.25
2022-09-10T10:23:30.916Z,101.25
2022-09-10T10:24:27.693Z,106.88
2022-09-10T10:25:27.684Z,106.88
2022-09-10T10:26:27.680Z,101.25
2022-09-10T10:27:27.670Z,101.25
2022-09-10T10:28:27.684Z,106.88
2022-09-10T10:29:27.658Z,101.25
2022-09-10T10:30:27.652Z,101.25
2022-09-10T10:31:27.675Z,101.25
2022-09-10T10:32:27.688Z,95.63
2022-09-10T10:33:27.629Z,95.63
2022-09-10T10:34:27.624Z,90.00
2022-09-10T10:35:27.617Z,90.00
2022-09-10T10:36:27.610Z,84.38
2022-09-10T10:37:27.606Z,84.38
2022-09-10T10:38:27.597Z,84.38
2022-09-10T10:39:27.588Z,84.38
2022-09-10T10:40:27.582Z,84.38
2022-09-10T10:41:27.575Z,84.38
2022-09-10T10:42:27.570Z,84.38
2022-09-10T10:43:27.560Z,84.38
2022-09-10T10:44:27.576Z,84.38
2022-09-10T10:45:27.548Z,84.38
2022-09-10T10:46:27.606Z,78.75
2022-09-10T10:47:27.534Z,78.75
2022-09-10T10:48:27.528Z,78.75
2022-09-10T10:49:27.521Z,73.13
2022-09-10T10:50:27.517Z,73.13
2022-09-10T10:51:27.505Z,73.13
2022-09-10T10:52:27.500Z,78.75
2022-09-10T10:53:27.492Z,84.38
2022-09-10T10:54:27.487Z,84.38
2022-09-10T10:55:27.478Z,84.38
2022-09-10T10:56:27.486Z,78.75
2022-09-10T10:57:27.468Z,84.38
2022-09-10T10:58:27.459Z,84.38
2022-09-10T10:59:27.449Z,90.00
2022-09-10T11:00:27.463Z,112.50
2022-09-10T11:01:27.523Z,123.75
2022-09-10T11:02:27.485Z,112.50
2022-09-10T11:03:27.422Z,135.00
2022-09-10T11:04:27.419Z,146.25
2022-09-10T11:05:27.409Z,118.13
2022-09-10T11:06:27.405Z,135.00
2022-09-10T11:07:27.395Z,118.13
2022-09-10T11:08:27.390Z,118.13
2022-09-10T11:09:27.382Z,118.13
2022-09-10T11:10:27.394Z,129.38
2022-09-10T11:11:27.370Z,112.50
2022-09-10T11:12:27.365Z,95.63
2022-09-10T11:13:27.359Z,95.63
2022-09-10T11:14:27.359Z,90.00
2022-09-10T11:15:27.344Z,90.00
2022-09-10T11:16:27.359Z,95.63
2022-09-10T11:17:27.333Z,95.63
2022-09-10T11:18:27.339Z,95.63
2022-09-10T11:19:27.320Z,95.63
2022-09-10T11:20:29.354Z,90.00
2022-09-10T11:21:27.307Z,84.38
2022-09-10T11:22:27.303Z,78.75
2022-09-10T11:23:27.298Z,73.13
2022-09-10T11:24:27.293Z,67.50
2022-09-10T11:25:27.283Z,67.50
2022-09-10T11:26:27.279Z,67.50
2022-09-10T11:27:27.270Z,67.50
2022-09-10T11:28:27.270Z,67.50
2022-09-10T11:29:27.258Z,73.13
2022-09-10T11:30:27.252Z,78.75
2022-09-10T11:31:27.259Z,95.63
2022-09-10T11:32:27.261Z,112.50
2022-09-10T11:33:27.231Z,140.63
2022-09-10T11:34:27.228Z,151.88
2022-09-10T11:35:27.223Z,146.25
2022-09-10T11:36:27.264Z,135.00
2022-09-10T11:37:27.205Z,146.25
2022-09-10T11:38:27.201Z,140.63
2022-09-10T11:39:27.192Z,95.63
2022-09-10T11:40:27.189Z,84.38
2022-09-10T11:41:27.180Z,78.75
2022-09-10T11:42:27.177Z,73.13
2022-09-10T11:43:27.180Z,73.13
2022-09-10T11:44:27.177Z,73.13
2022-09-10T11:45:27.156Z,73.13
2022-09-10T11:46:27.177Z,73.13
2022-09-10T11:47:27.144Z,78.75
2022-09-10T11:48:27.158Z,73.13
2022-09-10T11:49:27.131Z,84.38
2022-09-10T11:50:29.996Z,123.75
2022-09-10T11:51:27.118Z,112.50
2022-09-10T11:52:27.114Z,112.50
2022-09-10T11:53:27.110Z,123.75
2022-09-10T11:54:27.106Z,123.75
2022-09-10T11:55:27.094Z,123.75
2022-09-10T11:56:27.091Z,123.75
2022-09-10T11:57:27.082Z,123.75
2022-09-10T11:58:27.081Z,123.75
2022-09-10T11:59:27.072Z,123.75
2022-09-10T12:00:27.066Z,123.75
2022-09-10T12:01:27.060Z,123.75
2022-09-10T12:02:27.093Z,123.75
2022-09-10T12:03:27.125Z,123.75
2022-09-10T12:04:27.063Z,123.75
2022-09-10T12:05:27.042Z,123.75
2022-09-10T12:06:27.040Z,123.75
2022-09-10T12:07:27.025Z,123.75
2022-09-10T12:08:27.022Z,95.63
2022-09-10T12:09:27.016Z,90.00
2022-09-10T12:10:27.012Z,67.50
2022-09-10T12:11:27.003Z,67.50
2022-09-10T12:12:27.000Z,95.63
2022-09-10T12:13:26.992Z,84.38
2022-09-10T12:14:26.989Z,84.38
2022-09-10T12:15:26.982Z,67.50
2022-09-10T12:16:26.978Z,67.50
2022-09-10T12:17:26.975Z,67.50
2022-09-10T12:18:26.965Z,61.88
2022-09-10T12:19:26.961Z,67.50
2022-09-10T12:20:26.970Z,67.50
2022-09-10T12:21:26.951Z,67.50
2022-09-10T12:22:26.941Z,73.13
2022-09-10T12:23:26.938Z,73.13
2022-09-10T12:24:26.932Z,73.13
2022-09-10T12:25:31.648Z,78.75
2022-09-10T12:26:26.922Z,78.75
2022-09-10T12:27:26.917Z,73.13
2022-09-10T12:28:26.909Z,78.75
2022-09-10T12:29:26.908Z,78.75
2022-09-10T12:30:26.900Z,73.13
2022-09-10T12:31:26.956Z,67.50
2022-09-10T12:32:26.887Z,61.88
2022-09-10T12:33:26.885Z,56.25
2022-09-10T12:34:26.875Z,50.63
2022-09-10T12:35:26.872Z,50.63
2022-09-10T12:36:26.883Z,50.63
2022-09-10T12:37:26.862Z,56.25
2022-09-10T12:38:26.854Z,56.25
2022-09-10T12:39:26.849Z,61.88
2022-09-10T12:40:26.842Z,61.88
2022-09-10T12:41:26.839Z,67.50
2022-09-10T12:42:26.831Z,73.13
2022-09-10T12:43:26.827Z,73.13
2022-09-10T12:44:26.819Z,78.75
2022-09-10T12:45:26.818Z,78.75
2022-09-10T12:46:26.892Z,84.38
2022-09-10T12:47:26.804Z,90.00
2022-09-10T12:48:27.187Z,90.00
2022-09-10T12:49:26.792Z,90.00
2022-09-10T12:50:26.785Z,95.63
2022-09-10T12:51:26.779Z,95.63
2022-09-10T12:52:26.791Z,101.25
2022-09-10T12:53:26.769Z,101.25
2022-09-10T12:54:26.762Z,106.88
2022-09-10T12:55:26.757Z,106.88
2022-09-10T12:56:26.750Z,112.50
2022-09-10T12:57:26.749Z,112.50
2022-09-10T12:58:26.739Z,151.88
2022-09-10T12:59:26.736Z,146.25
2022-09-10T13:00:26.728Z,163.13
2022-09-10T13:01:26.846Z,135.00
2022-09-10T13:02:26.787Z,157.50
2022-09-10T13:03:26.714Z,140.63
2022-09-10T13:04:26.706Z,157.50